CYSM

Fort Smith Airport

Fort Smith, Northwest Territories, Canada
METAR CYSM 232200Z 30006KT 15SM SCT170 BKN230 M07/M13 A2942 RMK AC3CI4 SLP985
Observed Flight Rules
Feb-23 @ 22:00 UTC (39 minutes ago) Visual Flight Rules
Wind Visibility Clouds
300° at 6 knots 15 miles
  • Scattered at 17,000' AGL
  • Broken at 23,000' AGL
Temperatures Readings
Current -7°C / 19°F
Dewpoint -13°C / 9°F
Humidity 63%
Altimeter 29.42" Hg
Pressure 998.5 hPa
Elevation 203
METAR CYSM 232200Z 30006KT 15SM SCT170 BKN230 M07/M13 A2942 RMK AC3CI4 SLP985
Observed Flight Rules
Feb-23 @ 22:00 UTC
(39 minutes ago)
VFR
Wind Visibility
300° at 6 knots 15 miles
Clouds
  • Scattered at 17,000' AGL
  • Broken at 23,000' AGL
Temperature Dewpoint
-7°C / 19°F -13°C / 9°F
Humidity Altimeter Pressure
63% 29.42" Hg 998.5 hPa